createdAt,value
2019-03-13T00:00:00.742Z,19.75
2019-03-13T00:01:00.797Z,19.75
2019-03-13T00:02:00.623Z,19.75
2019-03-13T00:03:00.698Z,19.75
2019-03-13T00:04:00.450Z,19.75
2019-03-13T00:05:00.695Z,19.75
2019-03-13T00:06:00.973Z,19.75
2019-03-13T00:07:00.479Z,19.75
2019-03-13T00:08:00.634Z,19.75
2019-03-13T00:09:00.661Z,19.75
2019-03-13T00:10:00.518Z,19.75
2019-03-13T00:11:00.710Z,19.75
2019-03-13T00:12:00.666Z,19.75
2019-03-13T00:13:00.862Z,19.75
2019-03-13T00:14:00.539Z,19.75
2019-03-13T00:15:00.799Z,19.75
2019-03-13T00:16:00.597Z,19.75
2019-03-13T00:17:00.765Z,19.75
2019-03-13T00:18:00.558Z,19.75
2019-03-13T00:19:00.596Z,19.75
2019-03-13T00:20:00.746Z,19.75
2019-03-13T00:21:00.593Z,19.75
2019-03-13T00:22:00.646Z,19.75
2019-03-13T00:23:00.743Z,19.75
2019-03-13T00:24:00.552Z,19.75
2019-03-13T00:25:00.890Z,19.75
2019-03-13T00:26:00.785Z,19.75
2019-03-13T00:27:00.640Z,19.75
2019-03-13T00:28:00.637Z,19.75
2019-03-13T00:29:00.553Z,19.75
2019-03-13T00:30:02.135Z,19.75
2019-03-13T00:31:00.729Z,19.75
2019-03-13T00:32:00.476Z,19.75
2019-03-13T00:33:00.651Z,19.75
2019-03-13T00:34:00.948Z,19.75
2019-03-13T00:35:00.499Z,19.75
2019-03-13T00:36:00.639Z,19.75
2019-03-13T00:37:00.778Z,19.75
2019-03-13T00:38:00.516Z,19.75
2019-03-13T00:39:00.701Z,19.75
2019-03-13T00:40:00.748Z,19.75
2019-03-13T00:41:00.561Z,19.75
2019-03-13T00:42:00.659Z,19.75
2019-03-13T00:43:00.832Z,19.75
2019-03-13T00:44:00.686Z,19.75
2019-03-13T00:45:01.031Z,19.75
2019-03-13T00:46:00.932Z,19.75
2019-03-13T00:47:00.534Z,19.75
2019-03-13T00:48:00.676Z,19.75
2019-03-13T00:49:00.460Z,19.75
2019-03-13T00:50:00.682Z,19.75
2019-03-13T00:51:00.739Z,19.75
2019-03-13T00:52:00.564Z,19.75
2019-03-13T00:53:00.528Z,19.75
2019-03-13T00:54:00.681Z,19.5
2019-03-13T00:55:00.483Z,19.75
2019-03-13T00:56:00.540Z,19.75
2019-03-13T00:57:00.741Z,19.75
2019-03-13T00:58:00.566Z,19.5
2019-03-13T00:59:00.565Z,19.75
2019-03-13T01:00:00.805Z,19.5
2019-03-13T01:01:04.063Z,19.5
2019-03-13T01:02:00.712Z,19.5
2019-03-13T01:03:00.707Z,19.5
2019-03-13T01:04:03.209Z,19.5
2019-03-13T01:05:00.626Z,19.5
2019-03-13T01:06:00.797Z,19.5
2019-03-13T01:07:00.521Z,19.5
2019-03-13T01:08:00.633Z,19.5
2019-03-13T01:09:00.729Z,19.5
2019-03-13T01:10:00.577Z,19.5
2019-03-13T01:11:00.447Z,19.5
2019-03-13T01:12:00.739Z,19.5
2019-03-13T01:13:00.626Z,19.5
2019-03-13T01:14:00.684Z,19.5
2019-03-13T01:15:00.574Z,19.5
2019-03-13T01:16:00.614Z,19.5
2019-03-13T01:17:00.762Z,19.5
2019-03-13T01:18:00.535Z,19.5
2019-03-13T01:19:00.745Z,19.5
2019-03-13T01:20:00.771Z,19.5
2019-03-13T01:21:00.495Z,19.5
2019-03-13T01:22:00.651Z,19.5
2019-03-13T01:23:00.478Z,19.5
2019-03-13T01:24:00.842Z,19.5
2019-03-13T01:25:00.716Z,19.5
2019-03-13T01:26:00.500Z,19.5
2019-03-13T01:27:00.431Z,19.5
2019-03-13T01:28:00.668Z,19.5
2019-03-13T01:29:00.545Z,19.5
2019-03-13T01:30:00.568Z,19.5
2019-03-13T01:31:00.466Z,19.5
2019-03-13T01:32:00.597Z,19.5
2019-03-13T01:33:00.545Z,19.5
2019-03-13T01:34:00.886Z,19.5
2019-03-13T01:35:00.523Z,19.5
2019-03-13T01:36:00.592Z,19.5
2019-03-13T01:37:00.747Z,19.5
2019-03-13T01:38:00.744Z,19.5
2019-03-13T01:39:01.211Z,19.5
2019-03-13T01:40:00.737Z,19.5
2019-03-13T01:41:00.560Z,19.5
2019-03-13T01:42:00.585Z,19.5
2019-03-13T01:43:00.760Z,19.5
2019-03-13T01:44:00.619Z,19.5
2019-03-13T01:45:00.594Z,19.5
2019-03-13T01:46:00.567Z,19.5
2019-03-13T01:47:00.555Z,19.5
2019-03-13T01:48:00.606Z,19.5
2019-03-13T01:49:00.439Z,19.5
2019-03-13T01:50:00.618Z,19.5
2019-03-13T01:51:00.614Z,19.5
2019-03-13T01:52:00.488Z,19.5
2019-03-13T01:53:00.612Z,19.5
2019-03-13T01:54:00.784Z,19.5
2019-03-13T01:55:00.549Z,19.5
2019-03-13T01:56:00.685Z,19.5
2019-03-13T01:57:00.691Z,19.5
2019-03-13T01:58:00.637Z,19.5
2019-03-13T01:59:00.485Z,19.5
2019-03-13T02:00:00.747Z,19.5
2019-03-13T02:01:00.665Z,19.5
2019-03-13T02:02:00.687Z,19.5
2019-03-13T02:03:00.545Z,19.5
2019-03-13T02:04:00.640Z,19.5
2019-03-13T02:05:00.714Z,19.5
2019-03-13T02:06:00.535Z,19.5
2019-03-13T02:07:00.590Z,19.5
2019-03-13T02:08:00.702Z,19.5
2019-03-13T02:09:00.535Z,19.5
2019-03-13T02:10:00.528Z,19.5
2019-03-13T02:11:00.761Z,19.5
2019-03-13T02:12:00.624Z,19.5
2019-03-13T02:13:00.739Z,19.5
2019-03-13T02:14:00.564Z,19.5
2019-03-13T02:15:00.598Z,19.5
2019-03-13T02:16:00.751Z,19.5
2019-03-13T02:17:00.505Z,19.5
2019-03-13T02:18:00.442Z,19.5
2019-03-13T02:19:00.639Z,19.5
2019-03-13T02:20:00.600Z,19.5
2019-03-13T02:21:00.576Z,19.25
2019-03-13T02:22:00.734Z,19.5
2019-03-13T02:23:00.601Z,19.25
2019-03-13T02:24:00.609Z,19.25
2019-03-13T02:25:00.763Z,19.25
2019-03-13T02:26:00.514Z,19.25
2019-03-13T02:27:00.569Z,19.25
2019-03-13T02:28:00.761Z,19.25
2019-03-13T02:29:00.543Z,19.25
2019-03-13T02:30:01.114Z,19.25
2019-03-13T02:31:00.549Z,19.25
2019-03-13T02:32:00.805Z,19.25
2019-03-13T02:33:00.702Z,19.25
2019-03-13T02:34:00.526Z,19.25
2019-03-13T02:35:00.540Z,19.25
2019-03-13T02:36:00.787Z,19.25
2019-03-13T02:37:00.483Z,19.25
2019-03-13T02:38:00.471Z,19.25
2019-03-13T02:39:00.646Z,19.25
2019-03-13T02:40:00.937Z,19.25
2019-03-13T02:41:00.586Z,19.25
2019-03-13T02:42:00.738Z,19.25
2019-03-13T02:43:00.574Z,19.25
2019-03-13T02:44:00.652Z,19.25
2019-03-13T02:45:01.037Z,19.25
2019-03-13T02:46:00.635Z,19.25
2019-03-13T02:47:00.728Z,19.25
2019-03-13T02:48:00.444Z,19.25
2019-03-13T02:49:00.547Z,19.25
2019-03-13T02:50:00.653Z,19.25
2019-03-13T02:51:00.725Z,19.25
2019-03-13T02:52:00.509Z,19.25
2019-03-13T02:53:00.750Z,19.25
2019-03-13T02:54:00.479Z,19.25
2019-03-13T02:55:00.631Z,19.25
2019-03-13T02:56:00.438Z,19.25
2019-03-13T02:57:00.500Z,19.25
2019-03-13T02:58:00.945Z,19.25
2019-03-13T02:59:00.525Z,19.25
2019-03-13T03:00:00.699Z,19.25
2019-03-13T03:01:00.916Z,19.25
2019-03-13T03:02:00.499Z,19.25
2019-03-13T03:03:00.453Z,19.25
2019-03-13T03:04:00.678Z,19.25
2019-03-13T03:05:00.619Z,19.25
2019-03-13T03:06:00.983Z,19.25
2019-03-13T03:07:01.112Z,19.25
2019-03-13T03:08:00.539Z,19.25
2019-03-13T03:09:00.584Z,19.25
2019-03-13T03:10:00.733Z,19.25
2019-03-13T03:11:00.577Z,19.25
2019-03-13T03:12:00.591Z,19.25
2019-03-13T03:13:00.483Z,19.25
2019-03-13T03:14:00.503Z,19.25
2019-03-13T03:15:00.679Z,19.25
2019-03-13T03:16:00.528Z,19.25
2019-03-13T03:17:00.537Z,19.25
2019-03-13T03:18:00.598Z,19.25
2019-03-13T03:19:00.421Z,19.25
2019-03-13T03:20:00.853Z,19.25
2019-03-13T03:21:00.657Z,19.25
2019-03-13T03:22:00.477Z,19.25
2019-03-13T03:23:00.598Z,19.25
2019-03-13T03:24:00.607Z,19.25
2019-03-13T03:25:01.066Z,19.25
2019-03-13T03:26:00.691Z,19.25
2019-03-13T03:27:00.793Z,19.25
2019-03-13T03:28:00.494Z,19.25
2019-03-13T03:29:00.770Z,19.25
2019-03-13T03:30:01.460Z,19.25
2019-03-13T03:31:00.507Z,19.25
2019-03-13T03:32:00.647Z,19.25
2019-03-13T03:33:00.791Z,19.25
2019-03-13T03:34:00.826Z,19.25
2019-03-13T03:35:02.056Z,19.25
2019-03-13T03:36:00.499Z,19.25
2019-03-13T03:37:00.639Z,19.25
2019-03-13T03:38:00.643Z,19.25
2019-03-13T03:39:00.537Z,19.25
2019-03-13T03:40:00.637Z,19.25
2019-03-13T03:41:00.705Z,19.25
2019-03-13T03:42:00.554Z,19.25
2019-03-13T03:43:00.451Z,19.25
2019-03-13T03:44:00.758Z,19.25
2019-03-13T03:45:00.808Z,19.25
2019-03-13T03:46:00.916Z,19.25
2019-03-13T03:47:00.679Z,19.25
2019-03-13T03:48:00.566Z,19.25
2019-03-13T03:49:00.695Z,19.25
2019-03-13T03:50:00.963Z,19.25
2019-03-13T03:51:00.546Z,19.25
2019-03-13T03:52:00.821Z,19.25
2019-03-13T03:53:00.520Z,19.25
2019-03-13T03:54:00.675Z,19.25
2019-03-13T03:55:00.883Z,19.25
2019-03-13T03:56:00.427Z,19.25
2019-03-13T03:57:00.565Z,19.25
2019-03-13T03:58:00.766Z,19.25
2019-03-13T03:59:00.530Z,19.25
2019-03-13T04:00:00.671Z,19.25
2019-03-13T04:01:00.612Z,19.25
2019-03-13T04:02:00.473Z,19.25
2019-03-13T04:03:00.669Z,19.25
2019-03-13T04:04:00.593Z,19.25
2019-03-13T04:05:00.986Z,19.25
2019-03-13T04:06:00.597Z,19.25
2019-03-13T04:07:00.398Z,19.25
2019-03-13T04:08:00.600Z,19.25
2019-03-13T04:09:00.669Z,19.25
2019-03-13T04:10:00.560Z,19.25
2019-03-13T04:11:00.437Z,19.25
2019-03-13T04:12:00.799Z,19.25
2019-03-13T04:13:00.625Z,19.25
2019-03-13T04:14:00.609Z,19.25
2019-03-13T04:15:00.626Z,19.25
2019-03-13T04:16:00.404Z,19.25
2019-03-13T04:17:00.591Z,19.25
2019-03-13T04:18:00.639Z,19.25
2019-03-13T04:19:00.422Z,19.25
2019-03-13T04:20:00.875Z,19.25
2019-03-13T04:21:00.680Z,19.25
2019-03-13T04:22:00.444Z,19.25
2019-03-13T04:23:00.529Z,19.25
2019-03-13T04:24:00.669Z,19.25
2019-03-13T04:25:00.692Z,19.25
2019-03-13T04:26:00.627Z,19.25
2019-03-13T04:27:00.701Z,19.25
2019-03-13T04:28:00.457Z,19.25
2019-03-13T04:29:00.552Z,19.25
2019-03-13T04:30:00.833Z,19.25
2019-03-13T04:31:00.444Z,19.25
2019-03-13T04:32:00.595Z,19.25
2019-03-13T04:33:00.646Z,19.25
2019-03-13T04:34:00.459Z,19.25
2019-03-13T04:35:00.971Z,19.25
2019-03-13T04:36:00.834Z,19.25
2019-03-13T04:37:00.527Z,19.25
2019-03-13T04:38:00.601Z,19.25
2019-03-13T04:39:00.688Z,19.25
2019-03-13T04:40:00.569Z,19.25
2019-03-13T04:41:00.547Z,19.25
2019-03-13T04:42:00.657Z,19.25
2019-03-13T04:43:00.509Z,19.25
2019-03-13T04:44:00.669Z,19.25
2019-03-13T04:45:00.478Z,19.5
2019-03-13T04:46:00.540Z,19.5
2019-03-13T04:47:00.628Z,19.5
2019-03-13T04:48:00.475Z,19.5
2019-03-13T04:49:00.526Z,19.5
2019-03-13T04:50:00.713Z,19.5
2019-03-13T04:51:00.451Z,19.5
2019-03-13T04:52:00.651Z,19.5
2019-03-13T04:53:00.492Z,19.5
2019-03-13T04:54:00.458Z,19.5
2019-03-13T04:55:00.629Z,19.5
2019-03-13T04:56:00.438Z,19.5
2019-03-13T04:57:00.953Z,19.5
2019-03-13T04:58:00.678Z,19.5
2019-03-13T04:59:00.468Z,19.5
2019-03-13T05:00:00.489Z,19.5
2019-03-13T05:01:00.644Z,19.5
2019-03-13T05:02:00.444Z,19.5
2019-03-13T05:03:00.615Z,19.5
2019-03-13T05:04:00.577Z,19.5
2019-03-13T05:05:00.485Z,19.5
2019-03-13T05:06:00.603Z,19.5
2019-03-13T05:07:00.706Z,19.5
2019-03-13T05:08:00.484Z,19.75
2019-03-13T05:09:00.535Z,19.75
2019-03-13T05:10:00.605Z,19.75
2019-03-13T05:11:00.815Z,19.75
2019-03-13T05:12:00.594Z,19.75
2019-03-13T05:13:00.636Z,19.75
2019-03-13T05:14:00.531Z,19.75
2019-03-13T05:15:00.561Z,19.75
2019-03-13T05:16:00.381Z,19.75
2019-03-13T05:17:00.573Z,19.75
2019-03-13T05:18:00.539Z,19.75
2019-03-13T05:19:00.491Z,19.75
2019-03-13T05:20:00.626Z,19.75
2019-03-13T05:21:00.663Z,19.75
2019-03-13T05:22:00.366Z,19.75
2019-03-13T05:23:00.504Z,19.75
2019-03-13T05:24:00.663Z,19.75
2019-03-13T05:25:00.532Z,19.75
2019-03-13T05:26:00.592Z,19.75
2019-03-13T05:27:00.672Z,19.75
2019-03-13T05:28:00.395Z,19.75
2019-03-13T05:29:00.726Z,19.75
2019-03-13T05:30:00.933Z,19.75
2019-03-13T05:31:00.449Z,19.75
2019-03-13T05:32:00.568Z,19.75
2019-03-13T05:33:00.546Z,19.75
2019-03-13T05:34:00.416Z,19.75
2019-03-13T05:35:00.634Z,19.5
2019-03-13T05:36:00.663Z,19.5
2019-03-13T05:37:00.478Z,19.5
2019-03-13T05:38:00.583Z,19.5
2019-03-13T05:39:00.427Z,19.5
2019-03-13T05:40:00.605Z,19.5
2019-03-13T05:41:00.839Z,19.5
2019-03-13T05:42:00.707Z,19.5
2019-03-13T05:43:00.700Z,19.75
2019-03-13T05:44:00.528Z,19.75
2019-03-13T05:45:00.535Z,19.75
2019-03-13T05:46:00.561Z,19.75
2019-03-13T05:47:00.406Z,19.75
2019-03-13T05:48:00.521Z,19.75
2019-03-13T05:49:00.562Z,19.75
2019-03-13T05:50:00.740Z,19.75
2019-03-13T05:51:00.512Z,19.75
2019-03-13T05:52:00.767Z,19.75
2019-03-13T05:53:00.408Z,19.75
2019-03-13T05:54:00.544Z,19.75
2019-03-13T05:55:00.588Z,19.75
2019-03-13T05:56:00.549Z,19.75
2019-03-13T05:57:00.545Z,19.75
2019-03-13T05:58:00.684Z,19.75
2019-03-13T05:59:00.417Z,19.75
2019-03-13T06:00:00.657Z,19.75
2019-03-13T06:01:00.591Z,19.75
2019-03-13T06:02:00.418Z,19.75
2019-03-13T06:03:00.558Z,19.75
2019-03-13T06:04:00.478Z,19.75
2019-03-13T06:05:00.692Z,19.75
2019-03-13T06:06:00.600Z,19.75
2019-03-13T06:07:00.721Z,19.75
2019-03-13T06:08:00.448Z,19.75
2019-03-13T06:09:00.610Z,19.75
2019-03-13T06:10:00.813Z,19.75
2019-03-13T06:11:00.502Z,19.75
2019-03-13T06:12:01.684Z,19.75
2019-03-13T06:13:00.503Z,19.75
2019-03-13T06:14:00.489Z,19.75
2019-03-13T06:15:04.016Z,19.75
2019-03-13T06:16:00.410Z,19.75
2019-03-13T06:17:00.525Z,19.75
2019-03-13T06:18:00.682Z,19.75
2019-03-13T06:19:00.471Z,19.75
2019-03-13T06:20:00.766Z,19.75
2019-03-13T06:21:00.316Z,19.75
2019-03-13T06:22:00.551Z,19.75
2019-03-13T06:23:00.652Z,19.75
2019-03-13T06:24:00.374Z,19.75
2019-03-13T06:25:00.537Z,19.75
2019-03-13T06:26:00.530Z,19.75
2019-03-13T06:27:00.383Z,19.75
2019-03-13T06:28:00.512Z,19.75
2019-03-13T06:29:00.527Z,19.75
2019-03-13T06:30:00.657Z,19.75
2019-03-13T06:31:00.573Z,19.75
2019-03-13T06:32:00.531Z,19.75
2019-03-13T06:33:00.504Z,19.75
2019-03-13T06:34:00.501Z,19.75
2019-03-13T06:35:00.809Z,19.75
2019-03-13T06:36:00.505Z,19.75
2019-03-13T06:37:00.587Z,19.75
2019-03-13T06:38:00.637Z,19.75
2019-03-13T06:39:00.547Z,19.75
2019-03-13T06:40:00.665Z,19.75
2019-03-13T06:41:00.482Z,19.75
2019-03-13T06:42:00.399Z,19.75
2019-03-13T06:43:00.535Z,19.75
2019-03-13T06:44:00.371Z,19.75
2019-03-13T06:45:00.488Z,19.75
2019-03-13T06:46:00.597Z,19.75
2019-03-13T06:47:00.541Z,19.75
2019-03-13T06:48:00.503Z,19.75
2019-03-13T06:49:00.984Z,19.75
2019-03-13T06:50:00.581Z,19.75
2019-03-13T06:51:00.478Z,19.75
2019-03-13T06:52:00.659Z,19.75
2019-03-13T06:53:00.426Z,19.75
2019-03-13T06:54:00.444Z,19.75
2019-03-13T06:55:01.008Z,19.75
2019-03-13T06:56:00.528Z,19.75
2019-03-13T06:57:00.602Z,19.75
2019-03-13T06:58:00.429Z,19.75
2019-03-13T06:59:00.498Z,19.75
2019-03-13T07:00:00.497Z,19.75
2019-03-13T07:01:00.380Z,19.75
2019-03-13T07:02:00.522Z,19.75
2019-03-13T07:03:00.543Z,19.75
2019-03-13T07:04:00.322Z,19.75
2019-03-13T07:05:00.711Z,19.75
2019-03-13T07:06:00.685Z,19.75
2019-03-13T07:07:00.367Z,19.75
2019-03-13T07:08:00.596Z,19.75
2019-03-13T07:09:00.862Z,19.75
2019-03-13T07:10:00.421Z,19.75
2019-03-13T07:11:00.552Z,19.75
2019-03-13T07:12:00.305Z,19.75
2019-03-13T07:13:00.506Z,19.75
2019-03-13T07:14:00.503Z,19.75
2019-03-13T07:15:00.584Z,19.75
2019-03-13T07:16:00.514Z,19.75
2019-03-13T07:17:00.611Z,19.75
2019-03-13T07:18:00.804Z,19.75
2019-03-13T07:19:00.516Z,19.75
2019-03-13T07:20:00.777Z,19.75
2019-03-13T07:21:00.386Z,19.75
2019-03-13T07:22:00.401Z,19.75
2019-03-13T07:23:00.553Z,19.75
2019-03-13T07:24:00.434Z,19.75
2019-03-13T07:25:00.566Z,19.75
2019-03-13T07:26:00.554Z,19.75
2019-03-13T07:27:00.448Z,19.75
2019-03-13T07:28:00.646Z,19.75
2019-03-13T07:29:13.037Z,19.75
2019-03-13T07:30:00.586Z,19.75
2019-03-13T07:31:00.537Z,19.75
2019-03-13T07:32:00.595Z,19.75
2019-03-13T07:33:00.422Z,19.75
2019-03-13T07:34:00.497Z,19.75
2019-03-13T07:35:00.526Z,19.75
2019-03-13T07:36:00.417Z,19.75
2019-03-13T07:37:00.514Z,19.75
2019-03-13T07:38:00.633Z,19.75
2019-03-13T07:39:00.460Z,19.75
2019-03-13T07:40:00.513Z,19.75
2019-03-13T07:41:00.644Z,19.75
2019-03-13T07:42:00.439Z,19.75
2019-03-13T07:43:00.468Z,19.5
2019-03-13T07:44:00.562Z,19.75
2019-03-13T07:45:00.500Z,19.75
2019-03-13T07:46:00.475Z,19.75
2019-03-13T07:47:00.593Z,19.75
2019-03-13T07:48:00.434Z,19.75
2019-03-13T07:49:00.577Z,19.5
2019-03-13T07:50:00.639Z,19.5
2019-03-13T07:51:00.420Z,19.5
2019-03-13T07:52:00.754Z,19.75
2019-03-13T07:53:00.594Z,19.5
2019-03-13T07:54:00.402Z,19.5
2019-03-13T07:55:00.625Z,19.5
2019-03-13T07:56:00.585Z,19.5
2019-03-13T07:57:00.446Z,19.5
2019-03-13T07:58:00.438Z,19.5
2019-03-13T07:59:00.644Z,19.5
2019-03-13T08:00:00.658Z,19.5
2019-03-13T08:01:00.600Z,19.5
2019-03-13T08:02:00.308Z,19.5
2019-03-13T08:03:00.473Z,19.5
2019-03-13T08:04:00.531Z,19.5
2019-03-13T08:05:00.527Z,19.5
2019-03-13T08:06:00.496Z,19.5
2019-03-13T08:07:00.628Z,19.5
2019-03-13T08:08:00.361Z,19.5
2019-03-13T08:09:00.530Z,19.5
2019-03-13T08:10:00.563Z,19.5
2019-03-13T08:11:00.462Z,19.5
2019-03-13T08:12:00.500Z,19.5
2019-03-13T08:13:00.371Z,19.5
2019-03-13T08:14:00.448Z,19.5
2019-03-13T08:15:00.701Z,19.5
2019-03-13T08:16:00.346Z,19.5
2019-03-13T08:17:00.376Z,19.5
2019-03-13T08:18:00.514Z,19.5
2019-03-13T08:19:00.431Z,19.5
2019-03-13T08:20:00.564Z,19.5
2019-03-13T08:21:00.579Z,19.5
2019-03-13T08:22:00.584Z,19.5
2019-03-13T08:23:00.594Z,19.5
2019-03-13T08:24:00.687Z,19.5
2019-03-13T08:25:00.668Z,19.5
2019-03-13T08:26:00.464Z,19.5
2019-03-13T08:27:00.324Z,19.5
2019-03-13T08:28:00.514Z,19.5
2019-03-13T08:29:00.648Z,19.5
2019-03-13T08:30:00.496Z,19.5
2019-03-13T08:31:00.469Z,19.5
2019-03-13T08:32:00.669Z,19.5
2019-03-13T08:33:00.347Z,19.5
2019-03-13T08:34:00.576Z,19.5
2019-03-13T08:35:00.739Z,19.5
2019-03-13T08:36:00.862Z,19.5
2019-03-13T08:37:00.547Z,19.5
2019-03-13T08:38:00.567Z,19.5
2019-03-13T08:39:00.460Z,19.5
2019-03-13T08:40:00.620Z,19.5
2019-03-13T08:41:00.358Z,19.5
2019-03-13T08:42:00.668Z,19.5
2019-03-13T08:43:00.886Z,19.5
2019-03-13T08:44:00.403Z,19.5
2019-03-13T08:45:00.618Z,19.5
2019-03-13T08:46:00.539Z,19.5
2019-03-13T08:47:00.416Z,19.5
2019-03-13T08:48:00.473Z,19.5
2019-03-13T08:49:00.368Z,19.5
2019-03-13T08:50:00.650Z,19.5
2019-03-13T08:51:00.450Z,19.5
2019-03-13T08:52:00.420Z,19.75
2019-03-13T08:53:00.475Z,19.75
2019-03-13T08:54:00.484Z,19.75
2019-03-13T08:55:00.681Z,19.75
2019-03-13T08:56:00.540Z,19.75
2019-03-13T08:57:00.490Z,19.75
2019-03-13T08:58:00.451Z,19.75
2019-03-13T08:59:00.474Z,19.75
2019-03-13T09:00:00.717Z,19.75
2019-03-13T09:01:00.554Z,19.75
2019-03-13T09:02:00.481Z,19.75
2019-03-13T09:03:00.416Z,19.75
2019-03-13T09:04:00.490Z,19.75
2019-03-13T09:05:00.753Z,19.75
2019-03-13T09:06:00.449Z,20
2019-03-13T09:07:00.399Z,20
2019-03-13T09:08:00.556Z,20
2019-03-13T09:09:00.475Z,20
2019-03-13T09:10:00.516Z,20
2019-03-13T09:11:00.422Z,20
2019-03-13T09:12:00.464Z,20
2019-03-13T09:13:02.330Z,20
2019-03-13T09:14:00.513Z,20
2019-03-13T09:15:00.475Z,20
2019-03-13T09:16:00.483Z,20
2019-03-13T09:17:00.305Z,20
2019-03-13T09:18:00.702Z,20
2019-03-13T09:19:00.503Z,20
2019-03-13T09:20:00.578Z,20
2019-03-13T09:21:00.502Z,20
2019-03-13T09:22:00.500Z,20
2019-03-13T09:23:00.468Z,20
2019-03-13T09:24:00.514Z,20
2019-03-13T09:25:12.905Z,20.25
2019-03-13T09:26:00.630Z,20.25
2019-03-13T09:27:00.583Z,20.25
2019-03-13T09:28:00.615Z,20.25
2019-03-13T09:29:00.332Z,20.25
2019-03-13T09:30:00.709Z,20.25
2019-03-13T09:31:00.304Z,20.25
2019-03-13T09:32:00.349Z,20.25
2019-03-13T09:33:00.569Z,20.25
2019-03-13T09:34:00.381Z,20.25
2019-03-13T09:35:00.453Z,20.25
2019-03-13T09:36:00.514Z,20.25
2019-03-13T09:37:00.327Z,20.25
2019-03-13T09:38:00.383Z,20.25
2019-03-13T09:39:00.472Z,20.25
2019-03-13T09:40:00.703Z,20.25
2019-03-13T09:41:00.358Z,20.25
2019-03-13T09:42:00.590Z,20.5
2019-03-13T09:43:00.364Z,20.5
2019-03-13T09:44:00.516Z,20.5
2019-03-13T09:45:00.543Z,20.5
2019-03-13T09:46:00.356Z,20.5
2019-03-13T09:47:00.434Z,20.5
2019-03-13T09:48:00.410Z,20.5
2019-03-13T09:49:00.463Z,20.5
2019-03-13T09:50:00.562Z,20.5
2019-03-13T09:51:00.364Z,20.5
2019-03-13T09:52:00.411Z,20.5
2019-03-13T09:53:00.450Z,20.5
2019-03-13T09:54:00.411Z,20.5
2019-03-13T09:55:04.800Z,20.5
2019-03-13T09:56:00.480Z,20.5
2019-03-13T09:57:00.273Z,20.5
2019-03-13T09:58:00.395Z,20.5
2019-03-13T09:59:00.631Z,20.5
2019-03-13T10:00:00.637Z,20.5
2019-03-13T10:01:00.436Z,20.5
2019-03-13T10:02:00.443Z,20.5
2019-03-13T10:03:00.358Z,20.5
2019-03-13T10:04:00.475Z,20.5
2019-03-13T10:05:00.490Z,20.75
2019-03-13T10:06:00.291Z,20.75
2019-03-13T10:07:00.468Z,20.75
2019-03-13T10:08:00.658Z,20.75
2019-03-13T10:09:00.440Z,20.75
2019-03-13T10:10:00.705Z,20.75
2019-03-13T10:11:00.434Z,20.75
2019-03-13T10:12:00.401Z,20.75
2019-03-13T10:13:00.408Z,20.75
2019-03-13T10:14:00.578Z,20.75
2019-03-13T10:15:00.728Z,20.75
2019-03-13T10:16:00.425Z,20.75
2019-03-13T10:17:11.519Z,20.75
2019-03-13T10:18:00.415Z,20.75
2019-03-13T10:19:00.452Z,20.75
2019-03-13T10:20:00.604Z,20.75
2019-03-13T10:21:00.435Z,20.75
2019-03-13T10:22:00.524Z,20.75
2019-03-13T10:23:00.585Z,20.75
2019-03-13T10:24:00.513Z,20.75
2019-03-13T10:25:00.532Z,20.75
2019-03-13T10:26:00.400Z,20.75
2019-03-13T10:27:00.457Z,20.75
2019-03-13T10:28:00.536Z,20.75
2019-03-13T10:29:00.271Z,20.75
2019-03-13T10:30:00.625Z,20.75
2019-03-13T10:31:00.528Z,20.75
2019-03-13T10:32:00.260Z,20.75
2019-03-13T10:33:00.445Z,20.75
2019-03-13T10:34:00.502Z,20.75
2019-03-13T10:35:00.600Z,20.75
2019-03-13T10:36:00.533Z,20.75
2019-03-13T10:37:00.541Z,20.75
2019-03-13T10:38:14.643Z,20.75
2019-03-13T10:39:00.223Z,20.75
2019-03-13T10:40:00.560Z,20.75
2019-03-13T10:41:00.756Z,20.75
2019-03-13T10:42:00.419Z,20.75
2019-03-13T10:43:00.429Z,20.75
2019-03-13T10:44:00.549Z,20.75
2019-03-13T10:45:00.553Z,20.75
2019-03-13T10:46:00.393Z,20.75
2019-03-13T10:47:00.458Z,20.75
2019-03-13T10:48:00.429Z,20.75
2019-03-13T10:49:00.434Z,20.75
2019-03-13T10:50:00.589Z,20.75
2019-03-13T10:51:00.332Z,20.75
2019-03-13T10:52:00.496Z,20.75
2019-03-13T10:53:00.473Z,20.75
2019-03-13T10:54:00.640Z,20.75
2019-03-13T10:55:00.563Z,20.75
2019-03-13T10:56:00.313Z,20.75
2019-03-13T10:57:00.385Z,20.75
2019-03-13T10:58:00.493Z,20.75
2019-03-13T10:59:00.404Z,20.75
2019-03-13T11:00:00.523Z,20.75
2019-03-13T11:01:00.474Z,20.75
2019-03-13T11:02:00.379Z,20.75
2019-03-13T11:03:00.493Z,20.75
2019-03-13T11:04:00.242Z,20.75
2019-03-13T11:05:00.702Z,20.75
2019-03-13T11:06:00.554Z,20.75
2019-03-13T11:07:00.227Z,20.75
2019-03-13T11:08:00.442Z,20.75
2019-03-13T11:09:00.527Z,20.75
2019-03-13T11:10:00.642Z,20.75
2019-03-13T11:11:00.421Z,20.75
2019-03-13T11:12:00.603Z,20.75
2019-03-13T11:13:00.400Z,20.75
2019-03-13T11:14:00.482Z,20.75
2019-03-13T11:15:00.595Z,20.75
2019-03-13T11:16:00.478Z,20.75
2019-03-13T11:17:00.505Z,20.75
2019-03-13T11:18:00.317Z,20.75
2019-03-13T11:19:00.303Z,20.75
2019-03-13T11:20:00.611Z,20.75
2019-03-13T11:21:00.293Z,20.75
2019-03-13T11:22:00.345Z,21
2019-03-13T11:23:00.545Z,21
2019-03-13T11:24:01.289Z,21
2019-03-13T11:25:00.541Z,21
2019-03-13T11:26:00.556Z,21
2019-03-13T11:27:00.355Z,21
2019-03-13T11:28:00.381Z,21
2019-03-13T11:29:00.312Z,21
2019-03-13T11:30:00.596Z,21
2019-03-13T11:31:00.479Z,21
2019-03-13T11:32:00.244Z,21
2019-03-13T11:33:00.429Z,21
2019-03-13T11:34:00.422Z,21
2019-03-13T11:35:00.584Z,21
2019-03-13T11:36:00.794Z,21
2019-03-13T11:37:00.403Z,21
2019-03-13T11:38:00.285Z,21
2019-03-13T11:39:00.436Z,21
2019-03-13T11:40:00.643Z,21
2019-03-13T11:41:00.321Z,21
2019-03-13T11:42:00.421Z,21
2019-03-13T11:43:00.310Z,21
2019-03-13T11:44:00.451Z,21
2019-03-13T11:45:00.505Z,21
2019-03-13T11:46:00.315Z,21
2019-03-13T11:47:00.335Z,21
2019-03-13T11:48:00.641Z,21
2019-03-13T11:49:00.321Z,21
2019-03-13T11:50:00.714Z,21
2019-03-13T11:51:00.553Z,21
2019-03-13T11:52:00.335Z,21
2019-03-13T11:53:00.377Z,21
2019-03-13T11:54:00.324Z,21
2019-03-13T11:55:00.473Z,21
2019-03-13T11:56:00.426Z,21
2019-03-13T11:57:00.460Z,21
2019-03-13T11:58:00.391Z,21
2019-03-13T11:59:00.433Z,21
2019-03-13T12:00:00.589Z,21
2019-03-13T12:01:00.581Z,21
2019-03-13T12:02:00.574Z,21
2019-03-13T12:03:00.403Z,21
2019-03-13T12:04:00.429Z,21
2019-03-13T12:05:00.621Z,21
2019-03-13T12:06:00.446Z,21
2019-03-13T12:07:00.457Z,21
2019-03-13T12:08:00.404Z,21
2019-03-13T12:09:00.436Z,21
2019-03-13T12:10:00.534Z,21
2019-03-13T12:11:00.379Z,21
2019-03-13T12:12:00.379Z,21
2019-03-13T12:13:00.506Z,21
2019-03-13T12:14:00.449Z,21
2019-03-13T12:15:00.579Z,21
2019-03-13T12:16:00.523Z,21
2019-03-13T12:17:00.318Z,21
2019-03-13T12:18:00.502Z,21
2019-03-13T12:19:00.627Z,21
2019-03-13T12:20:00.485Z,21
2019-03-13T12:21:00.396Z,21
2019-03-13T12:22:00.325Z,21
2019-03-13T12:23:00.393Z,21
2019-03-13T12:24:00.525Z,21
2019-03-13T12:25:00.559Z,21
2019-03-13T12:26:03.715Z,21
2019-03-13T12:27:00.448Z,21
2019-03-13T12:28:00.352Z,21
2019-03-13T12:29:00.352Z,21
2019-03-13T12:30:00.669Z,21
2019-03-13T12:31:00.199Z,21
2019-03-13T12:32:00.402Z,21
2019-03-13T12:33:00.527Z,21
2019-03-13T12:34:00.249Z,21
2019-03-13T12:35:00.489Z,21
2019-03-13T12:36:00.979Z,21
2019-03-13T12:37:00.371Z,21
2019-03-13T12:38:00.482Z,21
2019-03-13T12:39:00.956Z,21
2019-03-13T12:40:00.571Z,21
2019-03-13T12:41:00.402Z,21
2019-03-13T12:42:00.599Z,21
2019-03-13T12:43:00.320Z,21
2019-03-13T12:44:00.370Z,21
2019-03-13T12:45:00.609Z,21
2019-03-13T12:46:00.265Z,21
2019-03-13T12:47:00.305Z,21
2019-03-13T12:48:00.418Z,21
2019-03-13T12:49:00.278Z,21.25
2019-03-13T12:50:00.487Z,21
2019-03-13T12:51:00.367Z,21.25
2019-03-13T12:52:00.326Z,21.25
2019-03-13T12:53:00.443Z,21.25
2019-03-13T12:54:00.296Z,21.25
2019-03-13T12:55:03.208Z,21.25
2019-03-13T12:56:00.457Z,21.25
2019-03-13T12:57:00.317Z,21.25
2019-03-13T12:58:00.406Z,21.25
2019-03-13T12:59:00.391Z,21.25
2019-03-13T13:00:00.502Z,21.25
2019-03-13T13:01:00.425Z,21.25
2019-03-13T13:02:00.885Z,21.25
2019-03-13T13:03:00.345Z,21.25
2019-03-13T13:04:00.381Z,21.25
2019-03-13T13:05:00.643Z,21.25
2019-03-13T13:06:00.289Z,21.25
2019-03-13T13:07:00.349Z,21.25
2019-03-13T13:08:00.184Z,21.25
2019-03-13T13:09:00.389Z,21.25